Time;durP1;ratioP1;P1;durP2;ratioP2;P2;SDS_P1;SDS_P2;PMS_P1;PMS_P2;Temp;Humidity;BMP_temperature;BMP_pressure;BME280_temperature;BME280_humidity;BME280_pressure;Samples;Min_cycle;Max_cycle;Signal;HPM_P1;HPM_P2
2022/09/04 00:01:33;;;;;;;3.90;2.47;;;17.50;99.90;;;;;;5056651;28;20098;-63
2022/09/04 00:04:05;;;;;;;4.72;2.33;;;17.50;99.90;;;;;;5056579;28;20489;-63
2022/09/04 00:06:39;;;;;;;3.03;1.88;;;17.10;99.90;;;;;;5056145;28;20041;-63
2022/09/04 00:09:17;;;;;;;1.80;1.30;;;16.80;99.90;;;;;;5056241;28;20094;-63
2022/09/04 00:11:57;;;;;;;3.22;1.95;;;16.80;99.90;;;;;;5056129;28;20087;-63
2022/09/04 00:14:45;;;;;;;2.70;1.80;;;17.00;99.90;;;;;;5056171;28;20043;-63
2022/09/04 00:17:37;;;;;;;8.73;2.63;;;17.30;99.90;;;;;;5056342;28;20040;-64
2022/09/04 00:20:27;;;;;;;3.33;2.58;;;17.50;99.90;;;;;;5056434;28;20033;-63
2022/09/04 00:23:19;;;;;;;4.00;3.15;;;17.80;99.90;;;;;;5049821;28;20040;-63
2022/09/04 00:25:56;;;;;;;4.63;2.25;;;17.90;99.90;;;;;;5056287;28;20428;-63
2022/09/04 00:28:40;;;;;;;3.53;2.40;;;18.10;99.90;;;;;;5055944;28;20033;-63
2022/09/04 00:31:05;;;;;;;3.20;2.60;;;18.20;99.90;;;;;;5056047;28;20048;-63
2022/09/04 00:33:37;;;;;;;5.28;2.35;;;18.30;99.90;;;;;;5055949;28;20077;-63
2022/09/04 00:36:04;;;;;;;3.15;2.05;;;18.30;99.90;;;;;;5056085;28;20064;-63
2022/09/04 00:38:53;;;;;;;2.92;2.20;;;18.00;99.90;;;;;;5055903;28;20401;-63
2022/09/04 00:41:56;;;;;;;3.55;2.20;;;17.90;99.90;;;;;;5056015;28;20036;-63
2022/09/04 00:44:49;;;;;;;2.75;2.08;;;17.70;99.90;;;;;;5056051;28;20037;-63
2022/09/04 00:47:26;;;;;;;2.75;1.92;;;17.40;99.90;;;;;;5055710;28;20040;-63
2022/09/04 00:50:20;;;;;;;4.30;2.50;;;17.20;99.90;;;;;;5055810;28;20048;-63
2022/09/04 00:52:53;;;;;;;3.03;2.08;;;17.00;99.90;;;;;;5055736;28;20033;-63
2022/09/04 00:55:51;;;;;;;2.85;2.00;;;17.10;99.90;;;;;;5055577;28;20630;-63
2022/09/04 00:58:51;;;;;;;5.55;2.20;;;17.30;99.90;;;;;;5055619;28;20121;-63
2022/09/04 01:01:27;;;;;;;4.00;2.35;;;17.30;99.90;;;;;;5033638;28;20041;-63
2022/09/04 01:04:11;;;;;;;7.85;2.95;;;17.40;99.90;;;;;;5055256;28;20044;-64
2022/09/04 01:07:04;;;;;;;7.40;2.97;;;17.50;99.90;;;;;;5055179;28;20033;-64
2022/09/04 01:09:56;;;;;;;6.35;2.55;;;17.00;99.90;;;;;;5055065;28;20045;-63
2022/09/04 01:12:36;;;;;;;3.97;2.55;;;16.80;99.90;;;;;;5054941;28;20053;-63
2022/09/04 01:15:33;;;;;;;2.77;2.10;;;16.80;99.90;;;;;;5054967;28;20056;-63
2022/09/04 01:18:28;;;;;;;3.33;2.30;;;17.00;99.90;;;;;;5055299;28;20033;-63
2022/09/04 01:21:19;;;;;;;3.33;2.20;;;17.10;99.90;;;;;;5055186;28;20040;-63
2022/09/04 01:24:21;;;;;;;5.63;2.20;;;17.00;99.90;;;;;;5055079;28;20055;-63
2022/09/04 01:27:27;;;;;;;3.28;2.17;;;16.90;99.90;;;;;;5055023;28;20035;-63
2022/09/04 01:30:10;;;;;;;3.42;2.20;;;17.00;99.90;;;;;;5033455;28;20047;-63
2022/09/04 01:33:00;;;;;;;3.50;1.90;;;17.10;99.90;;;;;;5054753;28;20037;-63
2022/09/04 01:35:51;;;;;;;2.53;1.90;;;17.10;99.90;;;;;;5054842;28;20053;-63
2022/09/04 01:38:37;;;;;;;4.80;2.80;;;17.10;99.90;;;;;;5054664;28;20119;-63
2022/09/04 01:41:15;;;;;;;3.35;2.30;;;17.30;99.90;;;;;;5054755;28;20056;-63
2022/09/04 01:43:41;;;;;;;5.65;2.42;;;16.80;99.90;;;;;;5054825;28;20041;-63
2022/09/04 01:46:22;;;;;;;4.45;2.67;;;17.30;99.90;;;;;;5054582;28;20041;-63
2022/09/04 01:49:15;;;;;;;3.90;2.70;;;17.30;99.90;;;;;;5058620;28;20043;-63
2022/09/04 01:52:04;;;;;;;5.47;2.67;;;17.40;99.90;;;;;;5074369;28;20079;-63
2022/09/04 01:54:52;;;;;;;4.07;3.00;;;17.40;99.90;;;;;;5074108;28;20041;-63
2022/09/04 01:57:42;;;;;;;3.80;2.65;;;17.30;99.90;;;;;;5074310;28;20040;-63
2022/09/04 02:00:21;;;;;;;5.57;3.30;;;17.40;99.90;;;;;;5074412;28;20040;-64
2022/09/04 02:03:05;;;;;;;4.28;3.00;;;17.40;99.90;;;;;;5074639;28;20043;-63
2022/09/04 02:05:47;;;;;;;8.88;3.10;;;17.40;99.90;;;;;;5074514;28;20112;-64
2022/09/04 02:08:42;;;;;;;5.75;2.85;;;17.30;99.90;;;;;;5074173;28;20048;-64
2022/09/04 02:11:11;;;;;;;5.20;2.60;;;17.20;99.90;;;;;;5074138;28;20093;-64
2022/09/04 02:14:05;;;;;;;3.20;2.67;;;17.00;99.90;;;;;;5073199;28;20074;-64
2022/09/04 02:16:34;;;;;;;4.18;2.83;;;17.00;99.90;;;;;;5074240;28;20040;-64
2022/09/04 02:19:26;;;;;;;8.57;2.88;;;16.60;99.90;;;;;;5074434;28;20036;-63
2022/09/04 02:22:11;;;;;;;4.30;3.15;;;16.70;99.90;;;;;;5042993;28;20128;-63
2022/09/04 02:24:54;;;;;;;6.78;3.10;;;16.70;99.90;;;;;;5074109;28;20046;-63
2022/09/04 02:27:25;;;;;;;3.88;2.55;;;16.70;99.90;;;;;;5073942;28;20040;-63
2022/09/04 02:29:55;;;;;;;4.80;2.10;;;16.40;99.90;;;;;;5073769;28;20043;-63
2022/09/04 02:32:44;;;;;;;3.55;2.40;;;16.10;99.90;;;;;;5073746;28;20049;-63
2022/09/04 02:35:20;;;;;;;6.43;2.70;;;16.10;99.90;;;;;;5073900;28;20079;-63
2022/09/04 02:37:59;;;;;;;4.45;2.70;;;16.40;99.90;;;;;;5073912;28;20089;-64
2022/09/04 02:40:49;;;;;;;4.82;2.92;;;16.50;99.90;;;;;;5073900;28;20515;-64
2022/09/04 02:43:53;;;;;;;11.32;4.45;;;16.80;99.90;;;;;;5073953;28;20518;-64
2022/09/04 02:46:31;;;;;;;6.75;4.75;;;16.70;99.90;;;;;;5032760;28;20047;-64
2022/09/04 02:49:01;;;;;;;13.40;4.70;;;16.90;99.90;;;;;;5073807;28;20048;-64
2022/09/04 02:51:36;;;;;;;14.57;7.00;;;16.90;99.90;;;;;;5073869;28;20515;-64
2022/09/04 02:54:30;;;;;;;13.30;7.45;;;16.90;99.90;;;;;;5073556;28;20124;-64
2022/09/04 02:57:06;;;;;;;10.68;6.75;;;16.90;99.90;;;;;;5035480;28;20052;-64
2022/09/04 02:59:47;;;;;;;11.57;5.50;;;16.90;99.90;;;;;;5073443;28;20456;-64
2022/09/04 03:02:49;;;;;;;11.05;5.45;;;16.90;99.90;;;;;;5071484;28;20045;-63
2022/09/04 03:05:22;;;;;;;6.32;4.32;;;16.80;99.90;;;;;;5067712;28;20743;-64
2022/09/04 03:08:30;;;;;;;7.05;4.05;;;16.80;99.90;;;;;;5073189;28;20040;-63
2022/09/04 03:11:18;;;;;;;8.88;4.35;;;16.60;99.90;;;;;;4992019;28;20042;-64
2022/09/04 03:14:11;;;;;;;6.78;4.50;;;16.40;99.90;;;;;;5069199;28;20093;-64
2022/09/04 03:16:50;;;;;;;5.60;3.65;;;16.40;99.90;;;;;;5073722;28;20047;-64
2022/09/04 03:19:39;;;;;;;9.93;4.07;;;16.30;99.90;;;;;;5073558;28;20567;-64
2022/09/04 03:22:32;;;;;;;10.77;6.18;;;16.30;99.90;;;;;;5072803;28;20492;-64
2022/09/04 03:25:09;;;;;;;10.48;4.85;;;16.40;99.90;;;;;;5076230;28;20090;-64
2022/09/04 03:27:36;;;;;;;11.15;5.82;;;16.40;99.90;;;;;;5077153;28;20047;-64
2022/09/04 03:30:07;;;;;;;12.93;7.18;;;16.40;99.90;;;;;;5077247;28;20423;-64
2022/09/04 03:32:41;;;;;;;21.77;9.23;;;16.40;99.90;;;;;;5077008;28;20502;-63
2022/09/04 03:35:26;;;;;;;20.42;9.75;;;16.50;99.90;;;;;;5077048;28;20103;-64
2022/09/04 03:38:19;;;;;;;20.02;8.77;;;16.50;99.90;;;;;;5076854;28;20043;-64
2022/09/04 03:41:10;;;;;;;20.05;9.65;;;16.70;99.90;;;;;;5076904;28;20097;-64
2022/09/04 03:43:46;;;;;;;24.13;11.18;;;16.70;99.90;;;;;;5076966;28;20036;-64
2022/09/04 03:46:21;;;;;;;22.33;11.80;;;16.70;99.90;;;;;;5076908;28;20048;-64
2022/09/04 03:49:06;;;;;;;22.48;11.77;;;16.70;99.90;;;;;;5076968;28;20093;-64
2022/09/04 03:52:18;;;;;;;24.67;11.27;;;16.70;99.90;;;;;;5076675;28;20927;-64
2022/09/04 03:55:21;;;;;;;17.63;10.75;;;16.70;99.90;;;;;;5034134;28;20120;-64
2022/09/04 03:58:01;;;;;;;22.13;11.82;;;16.70;99.90;;;;;;5054766;28;20059;-64
2022/09/04 04:00:35;;;;;;;19.70;11.77;;;16.80;99.90;;;;;;5070998;28;20067;-64
2022/09/04 04:03:32;;;;;;;18.13;10.13;;;16.90;99.90;;;;;;5075197;28;20040;-64
2022/09/04 04:06:08;;;;;;;21.45;11.60;;;16.90;99.90;;;;;;5076441;28;20040;-64
2022/09/04 04:08:55;;;;;;;22.98;12.93;;;16.80;99.90;;;;;;5076482;28;20047;-63
2022/09/04 04:11:41;;;;;;;20.20;12.20;;;16.80;99.90;;;;;;5076291;28;20442;-64
2022/09/04 04:14:29;;;;;;;28.60;12.00;;;16.90;99.90;;;;;;5076249;28;20123;-64
2022/09/04 04:16:58;;;;;;;21.50;12.48;;;17.00;99.90;;;;;;5076403;28;20458;-64
2022/09/04 04:20:01;;;;;;;22.05;13.25;;;17.00;99.90;;;;;;5076358;28;20090;-64
2022/09/04 04:22:31;;;;;;;23.58;12.63;;;;;;;;;;5076116;28;20063;-64
2022/09/04 04:25:13;;;;;;;22.38;12.27;;;17.10;99.90;;;;;;5076074;28;20071;-64
2022/09/04 04:27:57;;;;;;;21.08;12.77;;;17.10;99.90;;;;;;5076091;28;20044;-64
2022/09/04 04:30:23;;;;;;;20.77;11.35;;;17.10;99.90;;;;;;5075892;28;20040;-64
2022/09/04 04:33:01;;;;;;;17.80;10.95;;;17.00;99.90;;;;;;5075935;28;20036;-66
2022/09/04 04:35:59;;;;;;;22.80;11.60;;;17.00;99.90;;;;;;5075004;28;20121;-63
2022/09/04 04:38:46;;;;;;;24.08;12.55;;;16.80;99.90;;;;;;5068371;28;20033;-64
2022/09/04 04:41:20;;;;;;;25.92;11.88;;;;;;;;;;5075529;28;20048;-65
2022/09/04 04:43:51;;;;;;;25.42;11.93;;;16.50;99.90;;;;;;5075973;28;20044;-64
2022/09/04 04:46:54;;;;;;;20.08;11.88;;;16.40;99.90;;;;;;5075149;28;20037;-63
2022/09/04 04:50:05;;;;;;;21.17;11.07;;;16.40;99.90;;;;;;5055593;28;20037;-65
2022/09/04 04:52:34;;;;;;;30.45;12.82;;;16.30;99.90;;;;;;5043494;28;20055;-64
2022/09/04 04:55:38;;;;;;;30.00;13.90;;;16.20;99.90;;;;;;5055603;28;20044;-64
2022/09/04 04:58:35;;;;;;;24.88;13.32;;;16.20;99.90;;;;;;5055389;28;20047;-63
2022/09/04 05:01:42;;;;;;;28.23;13.65;;;16.10;99.90;;;;;;5055498;28;20044;-63
2022/09/04 05:04:21;;;;;;;25.00;12.68;;;16.10;99.90;;;;;;5055463;28;20471;-64
2022/09/04 05:07:02;;;;;;;32.40;14.93;;;16.10;99.90;;;;;;5055521;28;20043;-64
2022/09/04 05:09:46;;;;;;;27.55;13.40;;;16.10;99.90;;;;;;5055222;28;20040;-64
2022/09/04 05:12:22;;;;;;;31.73;13.80;;;16.00;99.90;;;;;;5053991;28;20052;-64
2022/09/04 05:15:04;;;;;;;25.98;12.55;;;16.00;99.90;;;;;;5055082;28;20107;-64
2022/09/04 05:17:49;;;;;;;30.15;12.52;;;16.10;99.90;;;;;;5055057;28;20077;-66
2022/09/04 05:20:37;;;;;;;25.80;11.75;;;16.10;99.90;;;;;;5054900;28;20045;-65
2022/09/04 05:23:21;;;;;;;28.23;12.05;;;16.10;99.90;;;;;;5054874;28;20033;-63
2022/09/04 05:25:59;;;;;;;24.08;10.75;;;16.10;99.90;;;;;;5055105;28;20044;-66
2022/09/04 05:28:41;;;;;;;26.83;11.68;;;16.20;99.90;;;;;;5055080;28;20435;-67
2022/09/04 05:31:31;;;;;;;22.05;10.00;;;16.30;99.90;;;;;;5054970;28;20043;-65
2022/09/04 05:34:09;;;;;;;16.40;8.60;;;16.40;99.90;;;;;;5053745;28;20039;-63
2022/09/04 05:36:50;;;;;;;17.85;9.20;;;16.30;99.90;;;;;;5054016;28;20470;-64
2022/09/04 05:39:35;;;;;;;19.40;9.05;;;16.40;99.90;;;;;;5054209;28;20113;-63
2022/09/04 05:42:18;;;;;;;17.20;8.57;;;16.30;99.90;;;;;;5054673;28;20390;-63
2022/09/04 05:44:50;;;;;;;18.10;9.07;;;16.20;99.90;;;;;;5054711;28;20048;-64
2022/09/04 05:47:34;;;;;;;16.77;8.57;;;16.20;99.90;;;;;;5054444;28;20086;-64
2022/09/04 05:50:27;;;;;;;17.23;8.63;;;16.10;99.90;;;;;;5054341;28;20033;-63
2022/09/04 05:52:58;;;;;;;16.10;8.80;;;16.10;99.90;;;;;;5054511;28;20542;-64
2022/09/04 05:55:38;;;;;;;18.95;8.60;;;16.20;99.90;;;;;;5054410;28;20048;-63
2022/09/04 05:58:48;;;;;;;15.60;7.63;;;16.00;99.90;;;;;;5054296;28;20045;-64
2022/09/04 06:01:49;;;;;;;15.90;8.63;;;16.30;99.90;;;;;;5045206;28;20052;-64
2022/09/04 06:04:30;;;;;;;12.27;6.97;;;16.40;99.90;;;;;;5038643;28;20028;-64
2022/09/04 06:07:06;;;;;;;17.33;8.85;;;16.30;99.90;;;;;;5054216;28;20045;-64
2022/09/04 06:09:39;;;;;;;21.50;10.55;;;16.40;99.90;;;;;;5054351;28;20044;-65
2022/09/04 06:12:39;;;;;;;24.90;8.63;;;16.70;99.90;;;;;;5054109;28;20166;-66
2022/09/04 06:15:36;;;;;;;20.38;8.68;;;16.70;99.90;;;;;;5054002;28;20080;-64
2022/09/04 06:18:16;;;;;;;26.92;7.03;;;16.80;99.90;;;;;;5034663;28;20131;-64
2022/09/04 06:21:20;;;;;;;22.70;7.45;;;16.70;99.90;;;;;;5054013;28;20511;-64
2022/09/04 06:24:18;;;;;;;12.77;6.90;;;16.60;99.90;;;;;;5048209;28;20037;-64
2022/09/04 06:26:51;;;;;;;21.60;6.80;;;16.40;99.90;;;;;;5054097;28;20033;-64
2022/09/04 06:29:45;;;;;;;19.15;7.63;;;16.50;99.90;;;;;;5053939;28;20045;-64
2022/09/04 06:32:42;;;;;;;14.07;7.25;;;16.70;99.90;;;;;;5053888;28;20041;-64
2022/09/04 06:35:42;;;;;;;29.00;7.43;;;16.70;99.90;;;;;;5053616;28;20056;-65
2022/09/04 06:38:23;;;;;;;15.02;7.82;;;16.70;99.90;;;;;;5032324;28;20072;-65
2022/09/04 06:40:58;;;;;;;18.52;9.13;;;16.80;99.90;;;;;;5053504;28;20028;-66
2022/09/04 06:44:02;;;;;;;15.55;8.45;;;16.80;99.90;;;;;;5053804;28;20048;-63
2022/09/04 06:47:02;;;;;;;15.85;8.13;;;17.00;99.90;;;;;;5053622;28;20036;-64
2022/09/04 06:50:04;;;;;;;14.77;8.33;;;17.10;99.90;;;;;;5032205;28;20048;-63
2022/09/04 06:52:46;;;;;;;26.55;8.23;;;17.10;99.90;;;;;;5051973;28;20064;-65
2022/09/04 06:55:32;;;;;;;30.73;8.70;;;17.10;99.90;;;;;;5053785;28;20053;-64
2022/09/04 06:58:20;;;;;;;19.83;9.48;;;17.00;99.90;;;;;;5053651;28;20488;-64
2022/09/04 07:00:54;;;;;;;22.25;10.35;;;17.10;99.90;;;;;;5057644;28;20047;-65
2022/09/04 07:03:36;;;;;;;17.10;9.10;;;17.20;99.90;;;;;;5076829;28;20032;-66
2022/09/04 07:06:12;;;;;;;19.33;8.98;;;17.20;99.90;;;;;;5077021;28;20394;-64
2022/09/04 07:09:03;;;;;;;19.67;9.50;;;17.20;99.90;;;;;;5077429;28;20128;-66
2022/09/04 07:11:56;;;;;;;20.08;8.65;;;17.10;99.90;;;;;;5077234;28;20043;-64
2022/09/04 07:14:28;;;;;;;19.00;9.65;;;17.10;99.90;;;;;;5077495;28;20048;-64
2022/09/04 07:17:05;;;;;;;20.48;8.23;;;17.10;99.90;;;;;;5077424;28;20032;-64
2022/09/04 07:19:58;;;;;;;18.77;9.27;;;17.20;99.90;;;;;;5077398;28;20075;-64
2022/09/04 07:22:50;;;;;;;22.85;9.48;;;17.20;99.90;;;;;;5077248;28;20519;-64
2022/09/04 07:25:22;;;;;;;17.98;8.00;;;17.20;99.90;;;;;;5077157;28;20040;-66
2022/09/04 07:27:54;;;;;;;21.38;9.57;;;17.20;99.90;;;;;;5076932;28;20041;-64
2022/09/04 07:30:24;;;;;;;17.63;8.57;;;17.30;99.90;;;;;;5076820;28;20033;-63
2022/09/04 07:32:58;;;;;;;20.23;8.25;;;17.50;99.90;;;;;;5077025;28;20033;-65
2022/09/04 07:35:34;;;;;;;22.65;10.30;;;17.40;99.90;;;;;;5076860;28;20044;-64
2022/09/04 07:38:15;;;;;;;22.83;10.10;;;17.40;99.90;;;;;;5076132;28;20494;-64
2022/09/04 07:41:01;;;;;;;19.42;9.23;;;17.50;99.90;;;;;;5076376;28;20060;-64
2022/09/04 07:43:41;;;;;;;27.90;8.80;;;17.50;99.90;;;;;;5076774;28;20062;-64
2022/09/04 07:46:19;;;;;;;21.03;10.27;;;17.40;99.90;;;;;;5076707;28;20041;-64
2022/09/04 07:49:04;;;;;;;22.60;10.52;;;17.50;99.90;;;;;;5076930;28;20041;-64
2022/09/04 07:51:42;;;;;;;21.88;10.82;;;17.60;99.90;;;;;;5077059;28;20111;-63
2022/09/04 07:54:32;;;;;;;28.42;10.20;;;17.80;99.90;;;;;;5076130;28;20173;-64
2022/09/04 07:57:15;;;;;;;22.75;10.50;;;18.10;99.90;;;;;;5076700;28;20063;-64
2022/09/04 07:59:58;;;;;;;21.00;10.60;;;18.20;99.90;;;;;;5076663;28;20044;-63
2022/09/04 08:02:37;;;;;;;25.50;10.15;;;18.40;99.90;;;;;;5074854;28;20121;-63
2022/09/04 08:05:09;;;;;;;19.20;8.73;;;19.10;99.90;;;;;;5065532;28;20037;-65
2022/09/04 08:07:38;;;;;;;16.40;8.95;;;19.40;99.90;;;;;;5060454;28;20041;-64
2022/09/04 08:10:30;;;;;;;14.50;8.00;;;19.70;99.90;;;;;;5060867;28;20377;-64
2022/09/04 08:13:17;;;;;;;20.30;9.30;;;19.90;99.90;;;;;;5076259;28;20048;-64
2022/09/04 08:16:05;;;;;;;18.95;7.78;;;20.50;99.90;;;;;;5076125;28;20063;-64
2022/09/04 08:18:55;;;;;;;13.93;7.60;;;20.90;99.90;;;;;;5065147;28;20033;-65
2022/09/04 08:21:21;;;;;;;13.35;7.18;;;21.10;99.90;;;;;;5056247;28;20036;-64
2022/09/04 08:24:14;;;;;;;15.65;7.28;;;21.30;99.90;;;;;;5056278;28;20120;-64
2022/09/04 08:26:58;;;;;;;12.35;6.82;;;21.20;99.90;;;;;;5056375;28;20401;-64
2022/09/04 08:29:57;;;;;;;12.40;6.97;;;21.30;99.90;;;;;;5055900;28;20068;-65
2022/09/04 08:33:00;;;;;;;11.95;6.55;;;21.60;99.90;;;;;;5055870;28;20123;-64
2022/09/04 08:36:09;;;;;;;11.35;5.50;;;21.70;99.90;;;;;;5063384;28;20542;-65
2022/09/04 08:38:55;;;;;;;9.95;5.90;;;21.80;99.90;;;;;;5064432;28;20504;-64
2022/09/04 08:42:17;;;;;;;8.48;5.18;;;21.80;99.90;;;;;;5071982;28;20071;-64
2022/09/04 08:45:05;;;;;;;13.13;6.38;;;21.80;99.90;;;;;;5061818;28;20519;-65
2022/09/04 08:48:13;;;;;;;15.10;6.20;;;21.80;99.90;;;;;;5071596;28;20033;-64
2022/09/04 08:51:16;;;;;;;13.15;6.22;;;22.10;99.90;;;;;;5009392;28;20072;-62
2022/09/04 08:54:10;;;;;;;13.70;7.60;;;22.20;99.90;;;;;;5008079;28;20120;-64
2022/09/04 08:56:46;;;;;;;13.93;8.32;;;22.60;99.90;;;;;;5064281;28;20064;-66
2022/09/04 08:59:21;;;;;;;12.52;7.55;;;22.70;99.90;;;;;;5053038;28;20127;-64
2022/09/04 09:02:02;;;;;;;16.20;7.93;;;22.90;99.90;;;;;;5069095;28;20043;-65
2022/09/04 09:05:04;;;;;;;11.63;6.43;;;22.80;99.90;;;;;;5073810;28;20097;-64
2022/09/04 09:07:59;;;;;;;14.35;6.20;;;23.20;99.90;;;;;;5072734;28;20048;-64
2022/09/04 09:11:02;;;;;;;13.23;6.78;;;23.40;99.90;;;;;;5066495;28;20097;-64
2022/09/04 09:13:46;;;;;;;12.23;6.80;;;23.30;99.90;;;;;;5072366;28;20101;-64
2022/09/04 09:16:37;;;;;;;12.98;6.82;;;23.30;99.90;;;;;;5072404;28;20048;-64
2022/09/04 09:19:43;;;;;;;10.23;6.38;;;23.40;99.90;;;;;;5072358;28;20046;-65
2022/09/04 09:22:47;;;;;;;10.95;5.90;;;23.60;99.90;;;;;;5067461;28;20042;-65
2022/09/04 09:25:26;;;;;;;10.75;6.72;;;24.00;99.90;;;;;;5060582;28;20143;-64
2022/09/04 09:28:04;;;;;;;14.77;6.20;;;23.80;99.90;;;;;;5057579;28;20139;-64
2022/09/04 09:31:01;;;;;;;10.57;6.95;;;24.00;99.90;;;;;;5052796;28;20033;-65
2022/09/04 09:33:51;;;;;;;10.93;5.88;;;24.50;99.90;;;;;;5065102;28;20141;-64
2022/09/04 09:36:18;;;;;;;;;;;24.20;99.90;;;;;;5072214;28;20045;-64
2022/09/04 09:39:17;;;;;;;9.13;5.30;;;24.30;99.90;;;;;;5072024;28;20022;-65
2022/09/04 09:42:04;;;;;;;6.50;4.15;;;24.30;99.90;;;;;;5066116;28;20781;-64
2022/09/04 09:44:56;;;;;;;5.78;3.78;;;24.60;99.90;;;;;;5063043;28;20041;-64
2022/09/04 09:47:22;;;;;;;7.22;3.50;;;;;;;;;;5052361;28;20048;-64
2022/09/04 09:50:07;;;;;;;6.40;3.13;;;;;;;;;;5051741;28;20480;-64
2022/09/04 09:53:09;;;;;;;7.20;3.60;;;24.50;99.90;;;;;;5051927;28;20407;-64
2022/09/04 09:55:38;;;;;;;5.50;3.28;;;24.70;99.90;;;;;;5051845;28;20076;-63
2022/09/04 09:58:35;;;;;;;6.30;3.58;;;24.70;99.90;;;;;;5051858;28;20044;-64
2022/09/04 10:01:25;;;;;;;4.50;2.85;;;24.60;99.90;;;;;;5051737;28;20044;-64
2022/09/04 10:04:12;;;;;;;6.82;2.63;;;25.00;99.90;;;;;;5052295;28;20041;-63
2022/09/04 10:07:13;;;;;;;7.22;3.10;;;24.90;99.90;;;;;;5051348;28;20090;-65
2022/09/04 10:09:50;;;;;;;5.32;2.80;;;25.20;99.90;;;;;;5051333;28;20041;-64
2022/09/04 10:12:42;;;;;;;6.25;2.97;;;25.20;99.90;;;;;;5051520;28;20048;-64
2022/09/04 10:15:37;;;;;;;3.50;2.53;;;25.20;99.90;;;;;;5050633;28;20488;-64
2022/09/04 10:18:21;;;;;;;10.90;2.97;;;25.00;99.90;;;;;;5053322;28;20053;-65
2022/09/04 10:21:34;;;;;;;5.30;2.40;;;25.10;99.90;;;;;;5059260;28;20052;-65
2022/09/04 10:24:24;;;;;;;5.13;2.60;;;24.80;99.90;;;;;;5062873;28;20516;-65
2022/09/04 10:27:11;;;;;;;4.53;2.72;;;25.10;99.90;;;;;;5060904;28;20072;-65
2022/09/04 10:29:54;;;;;;;5.78;2.95;;;25.50;99.90;;;;;;5056793;28;20043;-64
2022/09/04 10:32:39;;;;;;;5.97;2.83;;;25.30;99.90;;;;;;5064825;28;20545;-65
2022/09/04 10:35:20;;;;;;;5.85;3.00;;;25.20;99.90;;;;;;5071888;28;20580;-65
2022/09/04 10:38:03;;;;;;;4.90;2.78;;;25.60;99.90;;;;;;5073653;28;20032;-66
2022/09/04 10:40:53;;;;;;;4.13;3.10;;;25.30;99.90;;;;;;5073408;28;20106;-65
2022/09/04 10:43:29;;;;;;;5.80;2.70;;;25.30;99.90;;;;;;5072394;28;20040;-64
2022/09/04 10:46:26;;;;;;;7.60;2.65;;;25.50;99.90;;;;;;5071540;28;20117;-65
2022/09/04 10:49:17;;;;;;;6.28;2.90;;;25.90;99.90;;;;;;5071701;28;20089;-65
2022/09/04 10:51:52;;;;;;;3.92;2.67;;;26.20;99.90;;;;;;5063947;28;20064;-65
2022/09/04 10:54:28;;;;;;;4.22;2.55;;;26.10;99.90;;;;;;5051938;28;20489;-65
2022/09/04 10:57:13;;;;;;;5.55;2.40;;;26.30;99.90;;;;;;5050842;28;20053;-65
2022/09/04 10:59:47;;;;;;;4.28;2.28;;;26.40;99.90;;;;;;5051505;28;20431;-65
2022/09/04 11:02:41;;;;;;;4.65;2.47;;;25.90;99.90;;;;;;5050985;28;20049;-64
2022/09/04 11:05:28;;;;;;;4.63;2.08;;;25.00;99.90;;;;;;5066367;28;20082;-65
2022/09/04 11:08:04;;;;;;;5.43;2.70;;;25.50;99.90;;;;;;5071586;28;20036;-65
2022/09/04 11:10:42;;;;;;;4.40;2.40;;;25.50;99.90;;;;;;5071551;28;20040;-66
2022/09/04 11:13:41;;;;;;;6.22;2.33;;;25.90;99.90;;;;;;5070704;28;20419;-64
2022/09/04 11:16:36;;;;;;;3.97;2.28;;;25.70;99.90;;;;;;5071353;28;20055;-64
2022/09/04 11:19:15;;;;;;;3.25;2.20;;;25.90;99.90;;;;;;5070986;28;20060;-64
2022/09/04 11:21:58;;;;;;;4.88;2.83;;;25.90;99.90;;;;;;5071124;28;20036;-64
2022/09/04 11:25:03;;;;;;;8.02;2.67;;;26.10;99.90;;;;;;5071391;28;20040;-64
2022/09/04 11:28:01;;;;;;;4.13;3.30;;;25.80;99.90;;;;;;5071356;28;20492;-64
2022/09/04 11:30:27;;;;;;;3.92;2.20;;;26.20;99.90;;;;;;5048454;28;20135;-64
2022/09/04 11:33:32;;;;;;;7.28;2.00;;;26.30;99.90;;;;;;5071542;28;20166;-64
2022/09/04 11:36:34;;;;;;;5.88;2.58;;;26.00;99.90;;;;;;5070391;28;20131;-64
2022/09/04 11:39:11;;;;;;;2.53;1.95;;;26.20;99.90;;;;;;5071448;28;20375;-64
2022/09/04 11:42:29;;;;;;;4.30;2.60;;;26.10;99.90;;;;;;5073115;28;20052;-64
2022/09/04 11:45:02;;;;;;;4.47;2.05;;;26.30;99.90;;;;;;5003028;28;20036;-65
2022/09/04 11:47:31;;;;;;;3.78;2.10;;;26.30;99.90;;;;;;5074965;28;20137;-64
2022/09/04 11:50:04;;;;;;;4.68;2.10;;;26.50;99.90;;;;;;5073595;28;20472;-65
2022/09/04 11:53:06;;;;;;;4.75;2.10;;;26.40;99.90;;;;;;5074624;28;20036;-64
2022/09/04 11:56:06;;;;;;;6.20;2.40;;;26.50;99.90;;;;;;5063010;28;20094;-65
2022/09/04 11:58:50;;;;;;;3.90;2.55;;;26.40;99.90;;;;;;5076544;28;20048;-64
2022/09/04 12:01:35;;;;;;;3.47;2.42;;;26.50;99.90;;;;;;5074342;28;20044;-65
2022/09/04 12:04:22;;;;;;;3.28;1.60;;;26.80;99.90;;;;;;5073735;28;20042;-64
2022/09/04 12:07:15;;;;;;;5.97;2.33;;;26.60;99.90;;;;;;5074572;28;20045;-65
2022/09/04 12:10:28;;;;;;;7.18;2.63;;;26.60;99.90;;;;;;5075971;28;20519;-65
2022/09/04 12:13:22;;;;;;;4.63;2.08;;;26.80;99.90;;;;;;5064016;28;20415;-65
2022/09/04 12:16:07;;;;;;;4.85;2.47;;;27.10;99.90;;;;;;5074478;28;20147;-64
2022/09/04 12:18:53;;;;;;;6.10;2.67;;;26.60;99.30;;;;;;5074233;28;20045;-67
2022/09/04 12:21:36;;;;;;;2.72;1.90;;;26.70;98.90;;;;;;5074465;28;20040;-65
2022/09/04 12:24:21;;;;;;;5.80;2.28;;;26.60;98.90;;;;;;5073847;28;20097;-65
2022/09/04 12:26:59;;;;;;;5.07;2.20;;;26.40;98.00;;;;;;5072827;28;20528;-65
2022/09/04 12:29:46;;;;;;;3.85;2.38;;;26.60;98.90;;;;;;5073974;28;20028;-65
2022/09/04 12:32:14;;;;;;;6.88;2.10;;;26.50;98.70;;;;;;5073763;28;20083;-64
2022/09/04 12:35:18;;;;;;;3.22;2.25;;;27.00;99.10;;;;;;5072097;28;20446;-67
2022/09/04 12:38:12;;;;;;;3.25;2.40;;;26.80;98.40;;;;;;5073277;28;20041;-65
2022/09/04 12:41:05;;;;;;;3.30;2.28;;;26.60;98.60;;;;;;5072837;28;20037;-65
2022/09/04 12:43:31;;;;;;;4.15;1.80;;;26.80;98.40;;;;;;5071606;28;20186;-65
2022/09/04 12:46:05;;;;;;;2.65;2.30;;;26.70;98.10;;;;;;5070438;28;20115;-67
2022/09/04 12:48:59;;;;;;;2.40;1.75;;;26.80;97.70;;;;;;5072365;28;20519;-66
2022/09/04 12:51:42;;;;;;;2.85;1.92;;;26.80;97.00;;;;;;5069751;28;20068;-65
2022/09/04 12:54:33;;;;;;;7.10;2.10;;;26.50;97.80;;;;;;5070518;28;20036;-65
2022/09/04 12:57:14;;;;;;;5.30;2.53;;;26.70;98.10;;;;;;5070541;28;20500;-68
2022/09/04 13:00:04;;;;;;;3.00;1.88;;;26.60;97.20;;;;;;5071881;28;20040;-68
2022/09/04 13:02:45;;;;;;;4.10;2.08;;;26.40;97.80;;;;;;5070170;28;20218;-65
2022/09/04 13:05:49;;;;;;;2.55;1.63;;;26.30;97.30;;;;;;5069131;28;20048;-67
2022/09/04 13:08:21;;;;;;;3.65;2.00;;;26.30;97.50;;;;;;5051511;28;20067;-65
2022/09/04 13:11:18;;;;;;;3.83;2.08;;;27.00;97.70;;;;;;5068329;28;20466;-65
2022/09/04 13:14:07;;;;;;;2.17;1.25;;;27.10;96.50;;;;;;5068905;28;20079;-65
2022/09/04 13:16:43;;;;;;;2.55;1.75;;;27.00;96.40;;;;;;5070964;28;20518;-64
2022/09/04 13:19:28;;;;;;;3.65;1.77;;;26.90;96.30;;;;;;5069108;28;20044;-66
2022/09/04 13:22:09;;;;;;;3.15;1.90;;;26.80;96.30;;;;;;5070349;28;20062;-65
2022/09/04 13:25:01;;;;;;;2.95;1.83;;;26.80;96.00;;;;;;5072609;28;20519;-64
2022/09/04 13:27:33;;;;;;;3.85;1.63;;;27.00;96.10;;;;;;5073480;28;20045;-65
2022/09/04 13:30:20;;;;;;;2.63;1.52;;;26.80;95.00;;;;;;5072543;28;20036;-65
2022/09/04 13:33:05;;;;;;;3.75;1.67;;;26.90;95.20;;;;;;5072213;28;20044;-65
2022/09/04 13:35:54;;;;;;;3.20;1.70;;;26.90;95.10;;;;;;5071493;28;20040;-65
2022/09/04 13:38:41;;;;;;;3.92;2.35;;;26.90;95.30;;;;;;5072688;28;20040;-64
2022/09/04 13:41:28;;;;;;;3.83;1.55;;;27.00;94.80;;;;;;5071470;28;20052;-65
2022/09/04 13:44:04;;;;;;;5.55;1.30;;;;;;;;;;5067235;28;20466;-66
2022/09/04 13:46:44;;;;;;;3.53;1.45;;;27.40;94.20;;;;;;5069334;28;20496;-67
2022/09/04 13:49:25;;;;;;;;;;;27.30;94.50;;;;;;5071260;28;20044;-67
2022/09/04 13:52:01;;;;;;;3.30;1.83;;;27.20;94.30;;;;;;5072011;28;19947;-66
2022/09/04 13:54:37;;;;;;;2.20;1.52;;;27.40;94.20;;;;;;5070941;28;20036;-65
2022/09/04 13:57:24;;;;;;;3.63;1.75;;;27.20;93.80;;;;;;5071332;28;20499;-67
2022/09/04 13:59:53;;;;;;;3.47;1.52;;;27.00;93.60;;;;;;5072522;28;20028;-67
2022/09/04 14:02:24;;;;;;;1.60;1.30;;;27.30;93.90;;;;;;5070281;28;20447;-65
2022/09/04 14:05:09;;;;;;;;;;;27.50;93.70;;;;;;5071562;28;20051;-66
2022/09/04 14:07:40;;;;;;;5.80;2.05;;;27.30;92.70;;;;;;5068665;28;20504;-65
2022/09/04 14:10:16;;;;;;;5.00;1.80;;;27.10;92.10;;;;;;5068615;28;20032;-66
2022/09/04 14:13:03;;;;;;;5.10;1.48;;;27.00;92.50;;;;;;5070847;28;20058;-68
2022/09/04 14:16:02;;;;;;;3.05;1.38;;;27.20;92.90;;;;;;5070330;28;20048;-66
2022/09/04 14:19:00;;;;;;;9.48;1.92;;;27.10;92.50;;;;;;5068794;28;20036;-67